createdAt,value
2023-12-29T00:00:08.726Z,9.83
2023-12-29T00:02:36.800Z,9.89
2023-12-29T00:05:06.072Z,9.85
2023-12-29T00:07:35.039Z,9.89
2023-12-29T00:10:03.457Z,9.87
2023-12-29T00:12:33.029Z,9.83
2023-12-29T00:15:01.255Z,9.86
2023-12-29T00:17:33.458Z,9.87
2023-12-29T00:20:01.888Z,9.85
2023-12-29T00:22:30.026Z,9.84
2023-12-29T00:24:58.232Z,9.88
2023-12-29T00:27:28.919Z,9.88
2023-12-29T00:29:58.497Z,9.89
2023-12-29T00:32:26.853Z,9.87
2023-12-29T00:34:55.300Z,9.76
2023-12-29T00:37:23.474Z,9.68
2023-12-29T00:39:52.434Z,9.64
2023-12-29T00:42:20.648Z,9.63
2023-12-29T00:44:48.831Z,9.62
2023-12-29T00:47:20.697Z,9.61
2023-12-29T00:49:49.114Z,9.63
2023-12-29T00:52:17.334Z,9.64
2023-12-29T00:54:45.568Z,9.67
2023-12-29T00:57:13.888Z,9.72
2023-12-29T00:59:45.148Z,9.74
2023-12-29T01:02:13.373Z,9.75
2023-12-29T01:04:43.057Z,9.75
2023-12-29T01:07:11.760Z,9.77
2023-12-29T01:09:41.367Z,9.77
2023-12-29T01:12:09.636Z,9.75
2023-12-29T01:14:38.057Z,9.74
2023-12-29T01:17:06.218Z,9.74
2023-12-29T01:19:34.485Z,9.71
2023-12-29T01:22:04.032Z,9.70
2023-12-29T01:24:39.951Z,9.66
2023-12-29T01:27:11.240Z,9.63
2023-12-29T01:29:40.949Z,9.57
2023-12-29T01:32:09.476Z,9.53
2023-12-29T01:34:40.471Z,9.50
2023-12-29T01:37:10.143Z,9.47
2023-12-29T01:39:38.498Z,9.45
2023-12-29T01:42:06.859Z,9.43
2023-12-29T01:44:35.211Z,9.43
2023-12-29T01:47:03.684Z,9.44
2023-12-29T01:49:32.521Z,9.42
2023-12-29T01:52:02.590Z,9.40
2023-12-29T01:54:35.420Z,9.41
2023-12-29T01:57:04.761Z,9.39
2023-12-29T01:59:33.045Z,9.37
2023-12-29T02:02:01.450Z,9.38
2023-12-29T02:04:30.821Z,9.39
2023-12-29T02:06:59.366Z,9.45
2023-12-29T02:09:29.303Z,9.40
2023-12-29T02:11:59.005Z,9.40
2023-12-29T02:14:27.365Z,9.38
2023-12-29T02:17:04.482Z,9.38
2023-12-29T02:19:52.220Z,9.37
2023-12-29T02:22:20.718Z,9.35
2023-12-29T02:24:50.695Z,9.32
2023-12-29T02:27:31.435Z,9.28
2023-12-29T02:30:11.666Z,9.26
2023-12-29T02:32:44.685Z,9.29
2023-12-29T02:35:16.103Z,9.23
2023-12-29T02:37:44.953Z,9.23
2023-12-29T02:40:16.549Z,9.16
2023-12-29T02:42:49.601Z,9.16
2023-12-29T02:45:18.135Z,9.14
2023-12-29T02:47:46.895Z,9.12
2023-12-29T02:50:15.169Z,9.13
2023-12-29T02:52:43.253Z,9.11
2023-12-29T02:55:11.656Z,9.11
2023-12-29T02:57:41.785Z,9.11
2023-12-29T03:00:10.718Z,9.11
2023-12-29T03:02:39.028Z,9.10
2023-12-29T03:05:08.325Z,9.11
2023-12-29T03:07:37.731Z,9.11
2023-12-29T03:10:07.046Z,9.12
2023-12-29T03:12:35.240Z,9.16
2023-12-29T03:15:05.178Z,9.12
2023-12-29T03:17:33.380Z,9.13
2023-12-29T03:20:01.574Z,9.11
2023-12-29T03:22:29.853Z,9.14
2023-12-29T03:24:58.017Z,9.17
2023-12-29T03:27:26.212Z,9.14
2023-12-29T03:29:54.360Z,9.20
2023-12-29T03:32:23.897Z,9.20
2023-12-29T03:34:52.245Z,9.24
2023-12-29T03:37:20.520Z,9.22
2023-12-29T03:39:48.658Z,9.22
2023-12-29T03:42:16.877Z,9.23
2023-12-29T03:44:44.992Z,9.22
2023-12-29T03:47:13.225Z,9.23
2023-12-29T03:49:42.911Z,9.24
2023-12-29T03:52:11.224Z,9.27
2023-12-29T03:54:39.355Z,9.30
2023-12-29T03:57:07.494Z,9.26
2023-12-29T03:59:38.722Z,9.28
2023-12-29T04:02:07.353Z,9.30
2023-12-29T04:04:39.324Z,9.32
2023-12-29T04:07:11.016Z,9.35
2023-12-29T04:09:39.157Z,9.34
2023-12-29T04:12:07.793Z,9.36
2023-12-29T04:14:35.942Z,9.37
2023-12-29T04:17:05.401Z,9.39
2023-12-29T04:19:33.745Z,9.42
2023-12-29T04:22:01.887Z,9.45
2023-12-29T04:24:31.621Z,9.48
2023-12-29T04:27:02.661Z,9.47
2023-12-29T04:29:31.013Z,9.43
2023-12-29T04:31:59.156Z,9.42
2023-12-29T04:34:27.405Z,9.42
2023-12-29T04:36:55.694Z,9.41
2023-12-29T04:39:23.913Z,9.41
2023-12-29T04:41:53.464Z,9.40
2023-12-29T04:44:21.926Z,9.41
2023-12-29T04:46:50.031Z,9.42
2023-12-29T04:49:20.843Z,9.43
2023-12-29T04:51:49.740Z,9.46
2023-12-29T04:54:17.947Z,9.44
2023-12-29T04:56:46.141Z,9.42
2023-12-29T04:59:18.011Z,9.41
2023-12-29T05:01:46.500Z,9.48
2023-12-29T05:04:16.058Z,9.47
2023-12-29T05:06:44.737Z,9.51
2023-12-29T05:09:12.999Z,9.49
2023-12-29T05:11:41.582Z,9.48
2023-12-29T05:14:09.808Z,9.48
2023-12-29T05:16:39.309Z,9.49
2023-12-29T05:19:07.535Z,9.50
2023-12-29T05:21:35.668Z,9.51
2023-12-29T05:24:05.233Z,9.51
2023-12-29T05:26:33.535Z,9.51
2023-12-29T05:29:01.700Z,9.51
2023-12-29T05:31:29.962Z,9.47
2023-12-29T05:33:59.712Z,9.44
2023-12-29T05:36:27.951Z,9.46
2023-12-29T05:38:56.105Z,9.46
2023-12-29T05:41:24.336Z,9.42
2023-12-29T05:43:52.514Z,9.42
2023-12-29T05:46:20.751Z,9.43
2023-12-29T05:48:49.524Z,9.41
2023-12-29T05:51:19.387Z,9.38
2023-12-29T05:53:47.551Z,9.37
2023-12-29T05:56:16.539Z,9.34
2023-12-29T05:58:47.845Z,9.30
2023-12-29T06:01:16.179Z,9.30
2023-12-29T06:03:47.336Z,9.29
2023-12-29T06:06:15.724Z,9.28
2023-12-29T06:08:45.277Z,9.27
2023-12-29T06:11:17.266Z,9.23
2023-12-29T06:13:45.541Z,9.20
2023-12-29T06:16:19.989Z,9.19
2023-12-29T06:18:48.507Z,9.18
2023-12-29T06:21:19.549Z,9.17
2023-12-29T06:23:49.227Z,9.18
2023-12-29T06:26:18.474Z,9.16
2023-12-29T06:28:46.951Z,9.19
2023-12-29T06:31:16.029Z,9.13
2023-12-29T06:33:44.850Z,9.12
2023-12-29T06:36:14.214Z,9.16
2023-12-29T06:38:42.426Z,9.14
2023-12-29T06:41:12.397Z,9.10
2023-12-29T06:43:40.583Z,9.10
2023-12-29T06:46:10.042Z,9.10
2023-12-29T06:48:39.189Z,9.15
2023-12-29T06:51:07.684Z,9.11
2023-12-29T06:53:35.852Z,9.13
2023-12-29T06:56:04.045Z,9.14
2023-12-29T06:58:34.528Z,9.14
2023-12-29T07:01:03.020Z,9.13
2023-12-29T07:03:31.350Z,9.15
2023-12-29T07:05:59.706Z,9.13
2023-12-29T07:08:27.920Z,9.06
2023-12-29T07:10:56.127Z,9.05
2023-12-29T07:13:24.794Z,8.98
2023-12-29T07:15:57.256Z,8.91
2023-12-29T07:18:25.812Z,8.87
2023-12-29T07:20:54.016Z,8.86
2023-12-29T07:23:22.260Z,8.79
2023-12-29T07:25:50.903Z,8.76
2023-12-29T07:28:19.143Z,8.75
2023-12-29T07:30:47.573Z,8.70
2023-12-29T07:33:17.579Z,8.65
2023-12-29T07:35:46.003Z,8.58
2023-12-29T07:38:17.147Z,8.59
2023-12-29T07:40:45.407Z,8.58
2023-12-29T07:43:13.618Z,8.57
2023-12-29T07:45:42.286Z,8.57
2023-12-29T07:48:11.386Z,8.57
2023-12-29T07:50:41.752Z,8.55
2023-12-29T07:53:11.544Z,8.56
2023-12-29T07:55:40.873Z,8.57
2023-12-29T07:58:11.351Z,8.54
2023-12-29T08:00:39.982Z,8.53
2023-12-29T08:03:08.758Z,8.56
2023-12-29T08:05:37.212Z,8.55
2023-12-29T08:08:07.431Z,8.58
2023-12-29T08:10:36.726Z,8.59
2023-12-29T08:13:05.391Z,8.58
2023-12-29T08:15:33.509Z,8.57
2023-12-29T08:18:02.049Z,8.60
2023-12-29T08:20:30.275Z,8.58
2023-12-29T08:22:59.213Z,8.61
2023-12-29T08:25:28.681Z,8.63
2023-12-29T08:27:57.207Z,8.66
2023-12-29T08:30:25.384Z,8.69
2023-12-29T08:32:53.789Z,8.71
2023-12-29T08:35:22.004Z,8.71
2023-12-29T08:37:50.135Z,8.75
2023-12-29T08:40:18.488Z,8.74
2023-12-29T08:42:48.037Z,8.76
2023-12-29T08:45:16.365Z,8.80
2023-12-29T08:47:44.762Z,8.86
2023-12-29T08:50:12.961Z,8.86
2023-12-29T08:52:41.329Z,8.86
2023-12-29T08:55:11.176Z,8.89
2023-12-29T08:57:40.826Z,8.92
2023-12-29T09:00:14.162Z,8.94
2023-12-29T09:02:42.695Z,8.96
2023-12-29T09:05:10.968Z,8.99
2023-12-29T09:07:39.229Z,9.01
2023-12-29T09:10:09.472Z,9.02
2023-12-29T09:12:37.929Z,9.06
2023-12-29T09:15:09.891Z,9.10
2023-12-29T09:17:39.415Z,9.10
2023-12-29T09:20:11.115Z,9.11
2023-12-29T09:22:40.185Z,9.13
2023-12-29T09:25:08.728Z,9.14
2023-12-29T09:27:37.081Z,9.15
2023-12-29T09:30:07.009Z,9.17
2023-12-29T09:32:35.514Z,9.20
2023-12-29T09:35:08.445Z,9.23
2023-12-29T09:37:36.823Z,9.23
2023-12-29T09:40:09.129Z,9.25
2023-12-29T09:42:39.893Z,9.24
2023-12-29T09:45:12.628Z,9.27
2023-12-29T09:47:41.507Z,9.25
2023-12-29T09:50:13.649Z,9.27
2023-12-29T09:52:42.972Z,9.29
2023-12-29T09:55:12.473Z,9.32
2023-12-29T09:57:40.851Z,9.34
2023-12-29T10:00:13.339Z,9.36
2023-12-29T10:02:41.861Z,9.43
2023-12-29T10:05:11.954Z,9.42
2023-12-29T10:07:41.400Z,9.42
2023-12-29T10:10:15.247Z,9.43
2023-12-29T10:12:44.478Z,9.45
2023-12-29T10:15:17.336Z,9.48
2023-12-29T10:17:54.730Z,9.48
2023-12-29T10:20:35.458Z,9.55
2023-12-29T10:23:09.662Z,9.59
2023-12-29T10:25:38.235Z,9.58
2023-12-29T10:28:07.655Z,9.60
2023-12-29T10:30:36.058Z,9.59
2023-12-29T10:33:05.825Z,9.58
2023-12-29T10:35:39.000Z,9.61
2023-12-29T10:38:13.147Z,9.63
2023-12-29T10:40:45.152Z,9.66
2023-12-29T10:43:13.423Z,9.66
2023-12-29T10:45:44.017Z,9.68
2023-12-29T10:48:25.405Z,9.71
2023-12-29T10:50:55.069Z,9.77
2023-12-29T10:53:26.014Z,9.80
2023-12-29T10:55:54.093Z,9.78
2023-12-29T10:58:22.807Z,9.80
2023-12-29T11:00:51.016Z,9.81
2023-12-29T11:03:20.319Z,9.84
2023-12-29T11:05:54.832Z,9.84
2023-12-29T11:08:24.369Z,9.90
2023-12-29T11:10:53.095Z,9.95
2023-12-29T11:13:21.449Z,9.97
2023-12-29T11:15:50.291Z,10.03
2023-12-29T11:18:19.829Z,10.06
2023-12-29T11:20:48.769Z,10.10
2023-12-29T11:23:16.896Z,10.10
2023-12-29T11:25:48.161Z,10.17
2023-12-29T11:28:17.007Z,10.17
2023-12-29T11:30:45.498Z,10.21
2023-12-29T11:33:21.094Z,10.24
2023-12-29T11:35:55.261Z,10.21
2023-12-29T11:38:42.878Z,10.26
2023-12-29T11:41:20.175Z,10.31
2023-12-29T11:43:58.836Z,10.30
2023-12-29T11:46:45.436Z,10.31
2023-12-29T11:49:17.584Z,10.35
2023-12-29T11:51:50.582Z,10.37
2023-12-29T11:54:25.706Z,10.37
2023-12-29T11:56:56.735Z,10.36
2023-12-29T11:59:28.732Z,10.39
2023-12-29T12:01:58.403Z,10.40
2023-12-29T12:04:42.023Z,10.38
2023-12-29T12:07:18.347Z,10.41
2023-12-29T12:09:50.620Z,10.45
2023-12-29T12:12:41.866Z,10.49
2023-12-29T12:15:35.855Z,10.49
2023-12-29T12:18:07.489Z,10.51
2023-12-29T12:20:36.789Z,10.51
2023-12-29T12:23:12.866Z,10.47
2023-12-29T12:25:41.665Z,10.49
2023-12-29T12:28:12.571Z,10.51
2023-12-29T12:30:40.769Z,10.51
2023-12-29T12:33:12.546Z,10.50
2023-12-29T12:35:41.145Z,10.51
2023-12-29T12:38:10.598Z,10.52
2023-12-29T12:40:39.210Z,10.49
2023-12-29T12:43:07.998Z,10.51
2023-12-29T12:45:44.873Z,10.51
2023-12-29T12:48:21.219Z,10.55
2023-12-29T12:50:50.541Z,10.55
2023-12-29T12:53:22.225Z,10.50
2023-12-29T12:55:51.995Z,10.52
2023-12-29T12:58:23.529Z,10.55
2023-12-29T13:00:55.723Z,10.55
2023-12-29T13:03:25.303Z,10.56
2023-12-29T13:05:55.108Z,10.52
2023-12-29T13:08:30.293Z,10.54
2023-12-29T13:11:03.587Z,10.53
2023-12-29T13:13:39.456Z,10.48
2023-12-29T13:16:09.358Z,10.47
2023-12-29T13:18:37.936Z,10.47
2023-12-29T13:21:06.433Z,10.46
2023-12-29T13:23:34.951Z,10.50
2023-12-29T13:26:07.881Z,10.47
2023-12-29T13:28:39.710Z,10.43
2023-12-29T13:31:14.432Z,10.47
2023-12-29T13:33:54.948Z,10.43
2023-12-29T13:36:31.711Z,10.45
2023-12-29T13:39:08.608Z,10.41
2023-12-29T13:41:38.552Z,10.39
2023-12-29T13:44:07.990Z,10.35
2023-12-29T13:46:38.971Z,10.34
2023-12-29T13:49:09.243Z,10.31
2023-12-29T13:51:38.114Z,10.34
2023-12-29T13:54:06.304Z,10.30
2023-12-29T13:56:34.691Z,10.27
2023-12-29T13:59:08.586Z,10.29
2023-12-29T14:01:41.845Z,10.27
2023-12-29T14:04:14.329Z,10.31
2023-12-29T14:06:51.813Z,10.30
2023-12-29T14:09:20.673Z,10.27
2023-12-29T14:11:49.206Z,10.25
2023-12-29T14:14:24.705Z,10.25
2023-12-29T14:16:54.526Z,10.20
2023-12-29T14:19:22.861Z,10.23
2023-12-29T14:21:53.942Z,10.16
2023-12-29T14:24:23.344Z,10.17
2023-12-29T14:27:00.267Z,10.11
2023-12-29T14:29:28.876Z,10.05
2023-12-29T14:32:01.394Z,10.04
2023-12-29T14:34:29.490Z,10.04
2023-12-29T14:36:57.745Z,9.89
2023-12-29T14:39:25.860Z,9.82
2023-12-29T14:41:54.467Z,9.69
2023-12-29T14:44:22.811Z,9.61
2023-12-29T14:46:50.901Z,9.55
2023-12-29T14:49:20.745Z,9.49
2023-12-29T14:51:48.945Z,9.46
2023-12-29T14:54:17.118Z,9.39
2023-12-29T14:56:45.225Z,9.28
2023-12-29T14:59:15.997Z,9.28
2023-12-29T15:01:44.154Z,9.22
2023-12-29T15:04:13.629Z,9.21
2023-12-29T15:06:44.672Z,9.19
2023-12-29T15:09:12.924Z,9.16
2023-12-29T15:11:41.053Z,9.11
2023-12-29T15:14:09.149Z,9.10
2023-12-29T15:16:37.400Z,9.05
2023-12-29T15:19:06.799Z,9.07
2023-12-29T15:21:34.931Z,9.05
2023-12-29T15:24:04.526Z,9.05
2023-12-29T15:26:35.380Z,9.02
2023-12-29T15:29:03.856Z,9.03
2023-12-29T15:31:31.986Z,9.02
2023-12-29T15:34:00.210Z,9.00
2023-12-29T15:36:28.452Z,9.01
2023-12-29T15:38:56.913Z,8.99
2023-12-29T15:41:26.393Z,8.99
2023-12-29T15:43:57.303Z,8.95
2023-12-29T15:46:25.504Z,8.93
2023-12-29T15:48:58.782Z,8.91
2023-12-29T15:51:30.868Z,8.92
2023-12-29T15:53:59.018Z,8.93
2023-12-29T15:56:31.347Z,8.93
2023-12-29T15:58:59.513Z,8.94
2023-12-29T16:01:29.337Z,8.93
2023-12-29T16:03:59.773Z,8.96
2023-12-29T16:06:29.113Z,8.97
2023-12-29T16:08:58.108Z,8.98
2023-12-29T16:11:28.110Z,8.92
2023-12-29T16:13:59.206Z,8.92
2023-12-29T16:16:31.110Z,8.91
2023-12-29T16:18:59.774Z,8.90
2023-12-29T16:21:30.547Z,8.88
2023-12-29T16:23:59.433Z,8.84
2023-12-29T16:26:35.866Z,8.88
2023-12-29T16:29:12.116Z,8.85
2023-12-29T16:31:40.429Z,8.85
2023-12-29T16:34:11.093Z,8.83
2023-12-29T16:36:40.141Z,8.82
2023-12-29T16:39:11.111Z,8.83
2023-12-29T16:41:39.777Z,8.78
2023-12-29T16:44:08.952Z,8.75
2023-12-29T16:46:38.486Z,8.74
2023-12-29T16:49:06.722Z,8.73
2023-12-29T16:51:34.906Z,8.74
2023-12-29T16:54:04.514Z,8.72
2023-12-29T16:56:32.639Z,8.71
2023-12-29T16:59:01.786Z,8.68
2023-12-29T17:01:29.945Z,8.66
2023-12-29T17:03:59.529Z,8.66
2023-12-29T17:06:28.574Z,8.63
2023-12-29T17:08:56.764Z,8.65
2023-12-29T17:11:24.879Z,8.66
2023-12-29T17:13:53.657Z,8.63
2023-12-29T17:16:25.839Z,8.61
2023-12-29T17:18:55.245Z,8.61
2023-12-29T17:21:25.601Z,8.64
2023-12-29T17:23:53.771Z,8.66
2023-12-29T17:26:22.474Z,8.62
2023-12-29T17:28:52.288Z,8.57
2023-12-29T17:31:20.651Z,8.48
2023-12-29T17:33:51.953Z,8.28
2023-12-29T17:36:20.167Z,8.12
2023-12-29T17:38:49.670Z,8.04
2023-12-29T17:41:19.535Z,7.98
2023-12-29T17:43:48.045Z,7.97
2023-12-29T17:46:16.315Z,7.95
2023-12-29T17:48:44.980Z,7.95
2023-12-29T17:51:13.321Z,7.87
2023-12-29T17:53:45.158Z,7.64
2023-12-29T17:56:14.905Z,7.50
2023-12-29T17:58:43.066Z,7.32
2023-12-29T18:01:15.403Z,7.21
2023-12-29T18:03:44.061Z,7.21
2023-12-29T18:06:13.727Z,7.21
2023-12-29T18:08:42.501Z,7.15
2023-12-29T18:11:10.994Z,7.07
2023-12-29T18:13:40.569Z,7.04
2023-12-29T18:16:12.181Z,6.89
2023-12-29T18:18:43.515Z,6.85
2023-12-29T18:21:17.017Z,6.81
2023-12-29T18:23:46.226Z,6.69
2023-12-29T18:26:14.705Z,6.68
2023-12-29T18:28:45.283Z,6.68
2023-12-29T18:31:14.270Z,6.66
2023-12-29T18:33:44.994Z,6.66
2023-12-29T18:36:13.751Z,6.62
2023-12-29T18:38:41.801Z,6.63
2023-12-29T18:41:11.988Z,6.64
2023-12-29T18:43:40.232Z,6.64
2023-12-29T18:46:10.591Z,6.65
2023-12-29T18:48:40.291Z,6.64
2023-12-29T18:51:08.488Z,6.61
2023-12-29T18:53:36.722Z,6.57
2023-12-29T18:56:07.423Z,6.57
2023-12-29T18:58:35.643Z,6.56
2023-12-29T19:01:04.505Z,6.55
2023-12-29T19:03:36.159Z,6.57
2023-12-29T19:06:05.815Z,6.52
2023-12-29T19:08:34.204Z,6.50
2023-12-29T19:11:02.406Z,6.46
2023-12-29T19:13:31.646Z,6.43
2023-12-29T19:16:01.245Z,6.39
2023-12-29T19:18:29.688Z,6.38
2023-12-29T19:20:59.325Z,6.36
2023-12-29T19:23:29.508Z,6.33
2023-12-29T19:25:57.915Z,6.28
2023-12-29T19:28:27.208Z,6.27
2023-12-29T19:30:55.489Z,6.28
2023-12-29T19:33:24.226Z,6.24
2023-12-29T19:35:52.383Z,6.16
2023-12-29T19:38:24.047Z,6.17
2023-12-29T19:40:53.818Z,6.16
2023-12-29T19:43:23.263Z,6.17
2023-12-29T19:45:54.103Z,6.15
2023-12-29T19:48:22.398Z,6.16
2023-12-29T19:50:50.526Z,6.15
2023-12-29T19:53:22.778Z,6.09
2023-12-29T19:55:53.287Z,6.10
2023-12-29T19:58:21.640Z,6.08
2023-12-29T20:00:49.961Z,6.07
2023-12-29T20:03:23.076Z,6.11
2023-12-29T20:05:52.983Z,6.13
2023-12-29T20:08:23.119Z,6.16
2023-12-29T20:10:51.761Z,6.18
2023-12-29T20:13:22.737Z,6.24
2023-12-29T20:15:53.285Z,6.24
2023-12-29T20:18:21.545Z,6.32
2023-12-29T20:20:49.627Z,6.33
2023-12-29T20:23:17.837Z,6.40
2023-12-29T20:25:47.431Z,6.43
2023-12-29T20:28:15.612Z,6.52
2023-12-29T20:30:43.961Z,6.59
2023-12-29T20:33:12.571Z,6.62
2023-12-29T20:35:41.189Z,6.66
2023-12-29T20:38:09.292Z,6.66
2023-12-29T20:40:37.361Z,6.68
2023-12-29T20:43:06.974Z,6.72
2023-12-29T20:45:35.105Z,6.75
2023-12-29T20:48:03.248Z,6.77
2023-12-29T20:50:31.439Z,6.78
2023-12-29T20:52:59.639Z,6.72
2023-12-29T20:55:27.869Z,6.69
2023-12-29T20:57:56.044Z,6.67
2023-12-29T21:00:25.966Z,6.68
2023-12-29T21:02:54.085Z,6.65
2023-12-29T21:05:22.587Z,6.60
2023-12-29T21:07:50.722Z,6.57
2023-12-29T21:10:21.077Z,6.57
2023-12-29T21:12:49.875Z,6.55
2023-12-29T21:15:18.004Z,6.54
2023-12-29T21:17:49.186Z,6.52
2023-12-29T21:20:20.306Z,6.54
2023-12-29T21:22:50.518Z,6.53
2023-12-29T21:25:18.684Z,6.55
2023-12-29T21:27:47.414Z,6.58
2023-12-29T21:30:17.633Z,6.62
2023-12-29T21:32:47.785Z,6.59
2023-12-29T21:35:16.356Z,6.43
2023-12-29T21:37:44.399Z,6.30
2023-12-29T21:40:13.472Z,6.20
2023-12-29T21:42:41.584Z,6.11
2023-12-29T21:45:12.856Z,6.11
2023-12-29T21:47:44.249Z,6.03
2023-12-29T21:50:14.489Z,6.03
2023-12-29T21:52:42.730Z,6.06
2023-12-29T21:55:11.157Z,6.01
2023-12-29T21:57:39.408Z,6.01
2023-12-29T22:00:13.972Z,5.99
2023-12-29T22:02:42.255Z,5.99
2023-12-29T22:05:10.837Z,5.98
2023-12-29T22:07:41.177Z,6.02
2023-12-29T22:10:10.727Z,5.98
2023-12-29T22:12:39.103Z,5.96
2023-12-29T22:15:08.441Z,5.98
2023-12-29T22:17:36.863Z,5.91
2023-12-29T22:20:05.613Z,5.87
2023-12-29T22:22:38.674Z,5.83
2023-12-29T22:25:09.271Z,5.77
2023-12-29T22:27:38.440Z,5.67
2023-12-29T22:30:09.811Z,5.65
2023-12-29T22:32:38.243Z,5.63
2023-12-29T22:35:07.122Z,5.65
2023-12-29T22:37:35.257Z,5.66
2023-12-29T22:40:03.432Z,5.66
2023-12-29T22:42:36.121Z,5.70
2023-12-29T22:45:04.703Z,5.74
2023-12-29T22:47:32.873Z,5.77
2023-12-29T22:50:01.060Z,5.83
2023-12-29T22:52:29.213Z,5.84
2023-12-29T22:54:57.412Z,5.86
2023-12-29T22:57:25.503Z,5.95
2023-12-29T22:59:55.699Z,5.93
2023-12-29T23:02:24.111Z,5.95
2023-12-29T23:04:53.179Z,5.97
2023-12-29T23:07:21.540Z,6.01
2023-12-29T23:09:49.794Z,6.09
2023-12-29T23:12:18.011Z,6.07
2023-12-29T23:14:46.170Z,6.07
2023-12-29T23:17:15.770Z,6.04
2023-12-29T23:19:46.272Z,6.03
2023-12-29T23:22:14.480Z,6.00
2023-12-29T23:24:42.601Z,5.96
2023-12-29T23:27:10.660Z,5.93
2023-12-29T23:29:40.638Z,5.93
2023-12-29T23:32:09.275Z,5.88
2023-12-29T23:34:42.019Z,5.89
2023-12-29T23:37:10.002Z,5.89
2023-12-29T23:39:38.164Z,5.85
2023-12-29T23:42:06.715Z,5.80
2023-12-29T23:44:34.029Z,5.76
2023-12-29T23:47:02.185Z,5.73
2023-12-29T23:49:31.380Z,5.76
2023-12-29T23:52:01.072Z,5.73
2023-12-29T23:54:29.269Z,5.64
2023-12-29T23:56:57.742Z,5.59
2023-12-29T23:59:28.689Z,5.62
